Terminal Aerodrome Forecast
Issued by NWS

Home | Current Version | Previous Version | Text Only | Print | Product List | Glossary On
Versions: 1 2 3 4 5 6 7 8 9 10 11 12
000
FTUS46 KSEW 251100
TAFBFI
TAF
KBFI 251128Z 2512/2612 VRB03KT P6SM SCT025 BKN045
      TEMPO 2512/2514 -SHRA BKN025 OVC045
     FM251600 VRB03KT P6SM SCT030 SCT060
     FM252000 VRB03KT P6SM BKN050
     FM260000 31006KT P6SM SCT050 SCT100
     FM260700 17006KT P6SM SCT050 SCT100=

USA.gov is the U.S. government's official web portal to all federal, state and local government web resources and services.